• Join FlightAware (Why Join?)
  • Login
  • US Flag 
09:45PM EDT


 

Airport Tracker/Info


-or-


 

Live Flight TrackerFlight Track Log ✈ SKW6492 ✈ 01-May-2013 ✈ KAUS - KDEN

Flight Track Log - Related Links

Times and Time Zones

All times are in EDT time to prevent confusion due to time zone crossing. See the SKW6492 flight status page for this flight to view local times or setup timezone preferences in your user account.

Time Position Orientation Groundspeed Altitude Reporting Facility
EDT Latitude Longitude Course Direction KTS MPH feet Rate Location/Type
04:22PM 30.1281 -97.7622 291° West 242 278 5,500  Level Houston Center
04:23PM 30.4527 -97.7699 293° West  Level FlightAware Approximate
04:23PM 30.1667 -97.8311 303° West 253 291 7,300  Level Houston Center
04:24PM 30.4981 -97.8948 293° West  Level FlightAware Approximate
04:24PM 30.2242 -97.9028 313° West 279 321 10,000  Level Houston Center
04:25PM 30.5405 -98.0213 291° West  Level FlightAware Approximate
04:25PM 30.2783 -97.9769 310° West 282 325 12,400  Level Houston Center
04:26PM 30.5827 -98.1478 291° West  Level FlightAware Approximate
04:26PM 30.3200 -98.0589 301° West 295 339 14,600  Level Houston Center
04:27PM 30.6248 -98.2745 291° West  Level FlightAware Approximate
04:27PM 30.3781 -98.1194 318° Northwest 317 365 15,900  Level Houston Center
04:28PM 30.4669 -98.1917 325° Northwest 331 381 17,800 1,740 Climbing Houston Center
04:29PM 30.5489 -98.2592 325° Northwest 350 403 19,600 1,740 Climbing Houston Center
04:30PM 30.6319 -98.3258 325° Northwest 356 410 21,400 1,620 Climbing Houston Center
04:31PM 30.7153 -98.3939 325° Northwest 360 414 23,000 1,380 Climbing Houston Center
04:32PM 30.8031 -98.4644 325° Northwest 373 429 24,300 1,200 Climbing Houston Center
04:33PM 30.8914 -98.5356 325° Northwest 381 438 25,500 1,080 Climbing Houston Center
04:34PM 30.9806 -98.6089 325° Northwest 386 444 26,600 960 Climbing Houston Center
04:35PM 31.0744 -98.6861 325° Northwest 405 466 27,600 1,020 Climbing Houston Center
04:36PM 31.1861 -98.7764 325° Northwest 414 476 28,800 1,020 Climbing Houston Center
04:37PM 31.2822 -98.8561 325° Northwest 419 482 29,800 840 Climbing Houston Center
04:38PM 31.3800 -98.9344 326° Northwest 421 484 30,600 960 Climbing Houston Center
04:39PM 31.4769 -99.0158 324° Northwest 424 488 31,800 1,320 Climbing Houston Center
04:40PM 31.5706 -99.0925 325° Northwest 410 472 33,400 1,080 Climbing Houston Center
04:41PM 31.6644 -99.1756 323° Northwest 406 467 34,100 540 Climbing Fort Worth Center
04:42PM 31.7572 -99.2506 326° Northwest 406 467 34,600 480 Climbing Fort Worth Center
04:43PM 31.8478 -99.3308 323° Northwest 406 467 35,100 480 Climbing Fort Worth Center
04:45PM 32.0375 -99.4867 325° Northwest 406 467 36,200 540 Climbing Fort Worth Center
04:46PM 32.1342 -99.5675 325° Northwest 406 467 36,800 360 Climbing Fort Worth Center
04:50PM 32.3171 -99.7110 326° Northwest  Level FlightAware Approximate
04:50PM 32.5106 -99.8844 326° Northwest 417 480 38,000  Level Fort Worth Center
04:51PM 32.6364 -99.9592 333° Northwest 435 501 38,000  Level Fort Worth Center
04:52PM 32.7414 -100.0264 332° Northwest 431 496 38,000  Level Fort Worth Center
04:53PM 32.8442 -100.0986 329° Northwest 437 503 38,000  Level Fort Worth Center
04:54PM 32.9492 -100.1664 332° Northwest 432 497 38,000  Level Fort Worth Center
04:55PM 33.0519 -100.2339 331° Northwest 427 491 38,000  Level Fort Worth Center
04:56PM 33.1550 -100.2992 332° Northwest 427 491 38,000  Level Fort Worth Center
04:57PM 33.2558 -100.3644 332° Northwest 427 491 38,000  Level Fort Worth Center
04:58PM 33.3583 -100.4325 331° Northwest 427 491 38,000  Level Fort Worth Center
04:59PM 33.4611 -100.5008 331° Northwest 427 491 38,000  Level Fort Worth Center
05:00PM 33.5658 -100.5694 331° Northwest 422 486 38,000  Level Fort Worth Center
05:01PM 33.6683 -100.6381 331° Northwest 422 486 38,000  Level Fort Worth Center
05:02PM 33.7731 -100.7069 331° Northwest 422 486 38,000  Level Fort Worth Center
05:03PM 33.8775 -100.7783 330° Northwest 422 486 38,000  Level Fort Worth Center
05:06PM 34.1233 -100.9394 332° Northwest 427 491 38,000  Level Albuquerque Center
05:07PM 34.2267 -101.0097 331° Northwest 426 490 38,000  Level Albuquerque Center
05:08PM 34.3317 -101.0789 331° Northwest 428 493 38,000  Level Albuquerque Center
05:09PM 34.4353 -101.1486 331° Northwest 427 491 38,000  Level Albuquerque Center
05:10PM 34.5594 -101.2353 330° Northwest 429 494 38,000  Level Albuquerque Center
05:11PM 34.6639 -101.3053 331° Northwest 428 493 38,000  Level Albuquerque Center
05:12PM 34.7681 -101.3758 331° Northwest 429 494 38,000  Level Albuquerque Center
05:13PM 34.8719 -101.4472 331° Northwest 429 494 38,000  Level Albuquerque Center
05:14PM 34.9722 -101.5167 330° Northwest 427 491 38,000  Level Albuquerque Center
05:15PM 35.0769 -101.5881 331° Northwest 428 493 38,000  Level Albuquerque Center
05:16PM 35.1869 -101.6625 331° Northwest 424 488 38,000  Level Albuquerque Center
05:17PM 35.2892 -101.7342 330° Northwest 421 484 38,000  Level Albuquerque Center
05:18PM 35.4106 -101.8172 331° Northwest 424 488 38,000  Level Albuquerque Center
05:19PM 35.5125 -101.8872 331° Northwest 421 484 38,000  Level Albuquerque Center
05:20PM 35.6200 -101.9600 331° Northwest 422 486 38,000  Level Albuquerque Center
05:21PM 35.7256 -102.0286 332° Northwest 427 491 38,000  Level Albuquerque Center
05:22PM 35.8400 -102.0767 341° North 434 499 38,000  Level Albuquerque Center
05:23PM 35.9567 -102.1256 341° North 439 505 38,000  Level Albuquerque Center
05:24PM 36.0725 -102.1733 342° North 440 506 38,000  Level Albuquerque Center
05:25PM 36.1886 -102.2211 342° North 440 506 38,000  Level Albuquerque Center
05:26PM 36.3281 -102.2794 341° North 440 506 38,000  Level Albuquerque Center
05:28PM 36.4442 -102.3258 342° North 439 505 38,000  Level Albuquerque Center
05:29PM 36.5600 -102.3747 341° North 440 506 38,000  Level Albuquerque Center
05:30PM 36.6769 -102.4231 342° North 442 509 38,000 -240 Level Albuquerque Center
05:31PM 36.7953 -102.4747 341° North 447 514 37,600 -660 Descending Albuquerque Center
05:32PM 36.9317 -102.5306 342° North 456 525 36,700 -780 Descending Albuquerque Center
05:33PM 37.0533 -102.5819 341° North 471 542 36,000 -360 Descending Albuquerque Center
05:34PM 37.1931 -102.6406 342° North 474 545 36,000  Level Albuquerque Center
05:35PM 37.3119 -102.6906 342° North 471 542 36,000  Level Albuquerque Center
05:35PM 37.3825 -102.7369 332° Northwest 456 525 36,000  Level Denver Center
05:36PM 37.5006 -102.8194 331° Northwest 438 504 36,000  Level Denver Center
05:37PM 37.5997 -102.8928 330° Northwest 434 499 36,000  Level Denver Center
05:39PM 37.7189 -102.9783 330° Northwest 438 504 36,100  Climbing Denver Center
05:40PM 37.8217 -103.0528 330° Northwest 442 509 36,000 -60 Descending Denver Center
05:41PM 37.9256 -103.1292 330° Northwest 447 514 36,000  Level Denver Center
05:42PM 38.0431 -103.2128 331° Northwest 453 521 36,000  Level Denver Center
05:43PM 38.1531 -103.2956 329° Northwest 454 522 36,000  Level Denver Center
05:44PM 38.2647 -103.3758 331° Northwest 455 524 36,000 -240 Level Denver Center
05:45PM 38.3931 -103.4719 330° Northwest 456 525 35,600 -1,380 Descending Denver Center
05:46PM 38.5056 -103.5556 330° Northwest 463 533 33,200 -1,920 Descending Denver Center
05:47PM 38.6153 -103.6367 330° Northwest 452 520 31,700 -1,260 Descending Denver Center
05:48PM 38.7103 -103.7081 330° Northwest 395 455 30,600 -1,560 Descending Denver Center
05:49PM 38.8006 -103.7750 330° Northwest 372 428 28,500 -1,980 Descending Denver Center
05:50PM 38.8886 -103.8422 329° Northwest 366 421 26,600 -1,860 Descending Denver Center
05:51PM 38.9753 -103.9069 330° Northwest 357 411 24,700 -1,980 Descending Denver Center
05:52PM 39.0725 -103.9814 329° Northwest 347 399 22,600 -2,040 Descending Denver Center
05:53PM 39.1572 -104.0453 330° Northwest 349 402 20,600 -1,980 Descending Denver Center
05:54PM 39.2442 -104.1136 329° Northwest 365 420 18,600 -1,500 Descending Denver Center
05:55PM 39.2811 -104.2186 294° West 319 367 17,600 -1,260 Descending Denver Center
05:56PM 39.3039 -104.3242 286° West 289 333 16,100 -1,500 Descending Denver Center
05:57PM 39.3253 -104.4111 288° West 264 304 14,600 -1,380 Descending Denver Center
05:58PM 39.3472 -104.5094 286° West 265 305 13,300 -1,140 Descending Denver Center
05:59PM 39.3686 -104.5969 288° West 250 288 12,300 -840 Descending Denver Center
06:00PM 39.3933 -104.6592 297° West 196 226 11,600 -780 Descending Denver Center
06:01PM 39.4389 -104.6647 355° North 185 213 10,700 -660 Descending Denver Center
06:02PM 39.4892 -104.6625 North 181 208 10,300 -300 Descending Denver Center
06:03PM 39.5419 -104.6658 357° North 176 203 10,100 -120 Descending Denver Center
06:04PM 39.5900 -104.6633 North 172 198 10,100 -420 Level Denver Center
06:05PM 39.6383 -104.6631 360° North 174 200 9,300 -900 Descending Denver Center
06:06PM 39.6942 -104.6619 North 186 214 8,300 -1,020 Descending Denver Center